Nikolaevsk-Na-Amure, Russia
Current Conditions -  °F | °C
As of 2:30 PM on Wednesday 22 Oct 2014 (Local Time) from UHHH Reporting Station
Clear Clear  
Wind Chill: 26°   Ceiling: Unl
Heat Index: 37°   Visibility: 6mi
Dew Point:   Wind: 25mph
Humidity: 28%   Direction: 230°SW
Pressure: 30.03"   Gusts: 34mph
Location:  53.15°N, 140.7°E
Report Text: UHHH 220430Z 23011G15MPS CAVOK 03/M14 Q1017 NOSIG RMKQFE756/1008 23090060
Loading
Personal Weather Stations






























Interactive Weather Map
Tropical Storm Tracking
New forecast layout! Learn more

10-Day Weather Forecast

Advertisements
Track Severe Weather on mobile